sensor_id;sensor_type;location;lat;lon;timestamp;pressure;altitude;pressure_sealevel;temperature;humidity
30021;BME280;16861;52.294;7.760;2022-12-07T00:01:41;99750.91;;;7.64;68.84
30021;BME280;16861;52.294;7.760;2022-12-07T00:04:12;99744.97;;;7.60;69.19
30021;BME280;16861;52.294;7.760;2022-12-07T00:09:16;99742.41;;;7.59;69.16
30021;BME280;16861;52.294;7.760;2022-12-07T00:11:44;99747.59;;;7.60;68.91
30021;BME280;16861;52.294;7.760;2022-12-07T00:14:13;99743.25;;;7.59;69.23
30021;BME280;16861;52.294;7.760;2022-12-07T00:16:40;99736.25;;;7.60;69.00
30021;BME280;16861;52.294;7.760;2022-12-07T00:19:06;99732.75;;;7.59;69.26
30021;BME280;16861;52.294;7.760;2022-12-07T00:21:35;99724.06;;;7.59;69.32
30021;BME280;16861;52.294;7.760;2022-12-07T00:24:03;99722.28;;;7.59;69.04
30021;BME280;16861;52.294;7.760;2022-12-07T00:26:32;99723.22;;;7.58;69.09
30021;BME280;16861;52.294;7.760;2022-12-07T00:29:01;99723.22;;;7.58;69.21
30021;BME280;16861;52.294;7.760;2022-12-07T00:31:33;99723.28;;;7.56;69.09
30021;BME280;16861;52.294;7.760;2022-12-07T00:34:01;99725.91;;;7.56;68.84
30021;BME280;16861;52.294;7.760;2022-12-07T00:36:28;99717.22;;;7.56;68.79
30021;BME280;16861;52.294;7.760;2022-12-07T00:38:55;99723.34;;;7.55;68.41
30021;BME280;16861;52.294;7.760;2022-12-07T00:41:24;99721.72;;;7.52;68.65
30021;BME280;16861;52.294;7.760;2022-12-07T00:43:52;99722.69;;;7.50;68.53
30021;BME280;16861;52.294;7.760;2022-12-07T00:46:20;99718.47;;;7.47;68.56
30021;BME280;16861;52.294;7.760;2022-12-07T00:48:47;99715.97;;;7.44;68.72
30021;BME280;16861;52.294;7.760;2022-12-07T00:51:15;99713.50;;;7.41;68.43
30021;BME280;16861;52.294;7.760;2022-12-07T00:53:42;99717.94;;;7.39;68.49
30021;BME280;16861;52.294;7.760;2022-12-07T00:56:15;99711.13;;;7.35;69.11
30021;BME280;16861;52.294;7.760;2022-12-07T00:58:42;99715.47;;;7.36;68.73
30021;BME280;16861;52.294;7.760;2022-12-07T01:01:09;99721.63;;;7.35;68.81
30021;BME280;16861;52.294;7.760;2022-12-07T01:03:37;99709.50;;;7.32;68.64
30021;BME280;16861;52.294;7.760;2022-12-07T01:06:04;99709.66;;;7.29;68.50
30021;BME280;16861;52.294;7.760;2022-12-07T01:08:31;99707.94;;;7.28;68.65
30021;BME280;16861;52.294;7.760;2022-12-07T01:11:03;99707.31;;;7.23;68.52
30021;BME280;16861;52.294;7.760;2022-12-07T01:13:30;99717.00;;;7.21;68.19
30021;BME280;16861;52.294;7.760;2022-12-07T01:16:03;99724.19;;;7.15;68.83
30021;BME280;16861;52.294;7.760;2022-12-07T01:18:31;99716.50;;;7.12;68.17
30021;BME280;16861;52.294;7.760;2022-12-07T01:21:15;99703.72;;;7.04;69.00
30021;BME280;16861;52.294;7.760;2022-12-07T01:23:43;99717.66;;;7.05;68.59
30021;BME280;16861;52.294;7.760;2022-12-07T01:26:12;99715.22;;;7.00;68.47
30021;BME280;16861;52.294;7.760;2022-12-07T01:28:39;99709.28;;;6.97;68.47
30021;BME280;16861;52.294;7.760;2022-12-07T01:31:08;99711.19;;;6.93;68.96
30021;BME280;16861;52.294;7.760;2022-12-07T01:33:37;99703.47;;;6.90;68.67
30021;BME280;16861;52.294;7.760;2022-12-07T01:36:15;99711.38;;;6.88;68.84
30021;BME280;16861;52.294;7.760;2022-12-07T01:38:42;99716.75;;;6.85;68.67
30021;BME280;16861;52.294;7.760;2022-12-07T01:41:09;99704.72;;;6.81;68.34
30021;BME280;16861;52.294;7.760;2022-12-07T01:43:36;99715.31;;;6.78;68.73
30021;BME280;16861;52.294;7.760;2022-12-07T01:46:03;99712.03;;;6.73;68.58
30021;BME280;16861;52.294;7.760;2022-12-07T01:48:39;99719.19;;;6.68;69.20
30021;BME280;16861;52.294;7.760;2022-12-07T01:51:11;99726.22;;;6.67;69.08
30021;BME280;16861;52.294;7.760;2022-12-07T01:53:43;99728.94;;;6.64;68.55
30021;BME280;16861;52.294;7.760;2022-12-07T01:56:14;99724.69;;;6.61;68.35
30021;BME280;16861;52.294;7.760;2022-12-07T01:58:43;99726.53;;;6.59;68.47
30021;BME280;16861;52.294;7.760;2022-12-07T02:01:10;99719.72;;;6.55;68.25
30021;BME280;16861;52.294;7.760;2022-12-07T02:03:42;99718.28;;;6.48;68.69
30021;BME280;16861;52.294;7.760;2022-12-07T02:06:10;99719.25;;;6.45;68.26
30021;BME280;16861;52.294;7.760;2022-12-07T02:08:38;99717.63;;;6.43;68.04
30021;BME280;16861;52.294;7.760;2022-12-07T02:11:06;99719.63;;;6.36;68.21
30021;BME280;16861;52.294;7.760;2022-12-07T02:13:35;99721.50;;;6.32;68.13
30021;BME280;16861;52.294;7.760;2022-12-07T02:22:01;99717.88;;;6.14;68.78
30021;BME280;16861;52.294;7.760;2022-12-07T02:32:51;99701.16;;;5.94;69.08
30021;BME280;16861;52.294;7.760;2022-12-07T02:35:39;99702.22;;;5.89;68.86
30021;BME280;16861;52.294;7.760;2022-12-07T02:38:22;99701.50;;;5.85;69.01
30021;BME280;16861;52.294;7.760;2022-12-07T02:41:48;99697.38;;;5.79;69.17
30021;BME280;16861;52.294;7.760;2022-12-07T02:44:09;99705.16;;;5.81;68.67
30021;BME280;16861;52.294;7.760;2022-12-07T02:46:51;99697.56;;;5.74;69.00
30021;BME280;16861;52.294;7.760;2022-12-07T02:49:21;99704.53;;;5.74;68.78
30021;BME280;16861;52.294;7.760;2022-12-07T02:51:49;99703.75;;;5.72;68.68
30021;BME280;16861;52.294;7.760;2022-12-07T02:54:19;99702.06;;;5.69;69.07
30021;BME280;16861;52.294;7.760;2022-12-07T02:56:53;99699.56;;;5.68;69.37
30021;BME280;16861;52.294;7.760;2022-12-07T03:02:24;99696.94;;;5.68;69.63
30021;BME280;16861;52.294;7.760;2022-12-07T03:10:38;99691.41;;;5.76;69.36
30021;BME280;16861;52.294;7.760;2022-12-07T03:18:25;99688.84;;;5.74;69.23
30021;BME280;16861;52.294;7.760;2022-12-07T03:20:57;99690.69;;;5.72;69.11
30021;BME280;16861;52.294;7.760;2022-12-07T03:23:25;99691.53;;;5.72;68.96
30021;BME280;16861;52.294;7.760;2022-12-07T03:25:57;99693.34;;;5.70;69.15
30021;BME280;16861;52.294;7.760;2022-12-07T03:28:30;99686.34;;;5.71;69.12
30021;BME280;16861;52.294;7.760;2022-12-07T03:31:03;99684.66;;;5.70;69.21
30021;BME280;16861;52.294;7.760;2022-12-07T03:33:36;99694.25;;;5.69;69.38
30021;BME280;16861;52.294;7.760;2022-12-07T03:36:10;99686.34;;;5.71;69.23
30021;BME280;16861;52.294;7.760;2022-12-07T03:38:43;99686.34;;;5.71;69.10
30021;BME280;16861;52.294;7.760;2022-12-07T03:41:16;99686.41;;;5.69;69.01
30021;BME280;16861;52.294;7.760;2022-12-07T03:43:44;99677.69;;;5.70;68.72
30021;BME280;16861;52.294;7.760;2022-12-07T03:46:43;99681.38;;;5.65;69.49
30021;BME280;16861;52.294;7.760;2022-12-07T03:49:32;99681.47;;;5.61;69.18
30021;BME280;16861;52.294;7.760;2022-12-07T03:52:33;99680.72;;;5.59;69.41
30021;BME280;16861;52.294;7.760;2022-12-07T03:55:07;99688.53;;;5.59;69.11
30021;BME280;16861;52.294;7.760;2022-12-07T03:57:36;99677.22;;;5.59;69.04
30021;BME280;16861;52.294;7.760;2022-12-07T04:00:06;99682.50;;;5.57;69.08
30021;BME280;16861;52.294;7.760;2022-12-07T04:02:34;99687.78;;;5.56;69.07
30021;BME280;16861;52.294;7.760;2022-12-07T04:05:00;99679.94;;;5.56;69.22
30021;BME280;16861;52.294;7.760;2022-12-07T04:07:27;99681.69;;;5.57;69.30
30021;BME280;16861;52.294;7.760;2022-12-07T04:09:53;99685.97;;;5.58;69.23
30021;BME280;16861;52.294;7.760;2022-12-07T04:12:21;99678.09;;;5.59;69.64
30021;BME280;16861;52.294;7.760;2022-12-07T04:14:48;99682.34;;;5.62;69.20
30021;BME280;16861;52.294;7.760;2022-12-07T04:17:14;99678.72;;;5.66;69.51
30021;BME280;16861;52.294;7.760;2022-12-07T04:19:40;99676.88;;;5.68;69.56
30021;BME280;16861;52.294;7.760;2022-12-07T04:22:07;99682.00;;;5.71;69.69
30021;BME280;16861;52.294;7.760;2022-12-07T04:24:34;99687.13;;;5.74;69.62
30021;BME280;16861;52.294;7.760;2022-12-07T04:27:00;99676.53;;;5.78;69.65
30021;BME280;16861;52.294;7.760;2022-12-07T04:29:27;99675.56;;;5.80;69.69
30021;BME280;16861;52.294;7.760;2022-12-07T04:31:53;99675.50;;;5.82;69.36
30021;BME280;16861;52.294;7.760;2022-12-07T04:34:20;99678.88;;;5.85;69.53
30021;BME280;16861;52.294;7.760;2022-12-07T04:36:47;99679.63;;;5.87;69.32
30021;BME280;16861;52.294;7.760;2022-12-07T04:39:27;99677.94;;;5.86;69.56
30021;BME280;16861;52.294;7.760;2022-12-07T04:41:55;99675.13;;;5.91;69.25
30021;BME280;16861;52.294;7.760;2022-12-07T04:44:22;99678.63;;;5.92;69.22
30021;BME280;16861;52.294;7.760;2022-12-07T04:46:50;99675.94;;;5.93;69.24
30021;BME280;16861;52.294;7.760;2022-12-07T04:49:17;99684.66;;;5.94;69.04
30021;BME280;16861;52.294;7.760;2022-12-07T04:51:45;99686.41;;;5.93;68.93
30021;BME280;16861;52.294;7.760;2022-12-07T04:54:12;99684.56;;;5.95;68.91
30021;BME280;16861;52.294;7.760;2022-12-07T04:56:39;99682.88;;;5.94;69.03
30021;BME280;16861;52.294;7.760;2022-12-07T04:59:06;99679.41;;;5.94;68.78
30021;BME280;16861;52.294;7.760;2022-12-07T05:01:33;99681.16;;;5.93;68.86
30021;BME280;16861;52.294;7.760;2022-12-07T05:03:59;99680.31;;;5.93;68.58
30021;BME280;16861;52.294;7.760;2022-12-07T05:06:26;99685.59;;;5.91;68.59
30021;BME280;16861;52.294;7.760;2022-12-07T05:08:53;99677.84;;;5.90;68.40
30021;BME280;16861;52.294;7.760;2022-12-07T05:11:19;99683.06;;;5.90;68.81
30021;BME280;16861;52.294;7.760;2022-12-07T05:14:13;99677.09;;;5.86;68.91
30021;BME280;16861;52.294;7.760;2022-12-07T05:16:41;99677.88;;;5.88;68.75
30021;BME280;16861;52.294;7.760;2022-12-07T05:19:09;99684.91;;;5.86;68.92
30021;BME280;16861;52.294;7.760;2022-12-07T05:21:36;99687.47;;;5.87;68.89
30021;BME280;16861;52.294;7.760;2022-12-07T05:24:03;99676.97;;;5.89;69.16
30021;BME280;16861;52.294;7.760;2022-12-07T05:26:30;99678.72;;;5.89;69.16
30021;BME280;16861;52.294;7.760;2022-12-07T05:28:57;99683.94;;;5.89;68.88
30021;BME280;16861;52.294;7.760;2022-12-07T05:31:25;99689.97;;;5.91;69.05
30021;BME280;16861;52.294;7.760;2022-12-07T05:33:51;99674.31;;;5.91;68.93
30021;BME280;16861;52.294;7.760;2022-12-07T05:36:18;99677.75;;;5.91;68.81
30021;BME280;16861;52.294;7.760;2022-12-07T05:38:45;99680.44;;;5.90;68.78
30021;BME280;16861;52.294;7.760;2022-12-07T05:41:14;99678.72;;;5.89;68.91
30021;BME280;16861;52.294;7.760;2022-12-07T05:44:00;99675.22;;;5.90;68.35
30021;BME280;16861;52.294;7.760;2022-12-07T05:46:26;99672.66;;;5.88;68.56
30021;BME280;16861;52.294;7.760;2022-12-07T05:48:53;99677.03;;;5.87;68.96
30021;BME280;16861;52.294;7.760;2022-12-07T05:51:19;99670.16;;;5.85;68.88
30021;BME280;16861;52.294;7.760;2022-12-07T05:53:46;99672.72;;;5.86;69.02
30021;BME280;16861;52.294;7.760;2022-12-07T05:56:12;99664.94;;;5.85;69.10
30021;BME280;16861;52.294;7.760;2022-12-07T05:58:39;99665.75;;;5.87;69.05
30021;BME280;16861;52.294;7.760;2022-12-07T06:01:23;99666.56;;;5.87;68.83
30021;BME280;16861;52.294;7.760;2022-12-07T06:03:50;99664.78;;;5.90;68.81
30021;BME280;16861;52.294;7.760;2022-12-07T06:06:16;99673.38;;;5.92;69.02
30021;BME280;16861;52.294;7.760;2022-12-07T06:11:17;99657.66;;;5.93;68.86
30021;BME280;16861;52.294;7.760;2022-12-07T06:14:02;99648.91;;;5.94;68.90
30021;BME280;16861;52.294;7.760;2022-12-07T06:16:29;99656.69;;;5.96;68.84
30021;BME280;16861;52.294;7.760;2022-12-07T06:18:56;99660.16;;;5.96;68.76
30021;BME280;16861;52.294;7.760;2022-12-07T06:21:22;99657.59;;;5.95;68.71
30021;BME280;16861;52.294;7.760;2022-12-07T06:23:49;99663.75;;;5.94;68.23
30021;BME280;16861;52.294;7.760;2022-12-07T06:26:15;99662.94;;;5.92;67.96
30021;BME280;16861;52.294;7.760;2022-12-07T06:28:42;99668.28;;;5.89;67.86
30021;BME280;16861;52.294;7.760;2022-12-07T06:31:09;99671.09;;;5.84;67.77
30021;BME280;16861;52.294;7.760;2022-12-07T06:33:40;99668.63;;;5.79;67.78
30021;BME280;16861;52.294;7.760;2022-12-07T06:36:07;99668.94;;;5.71;67.62
30021;BME280;16861;52.294;7.760;2022-12-07T06:38:33;99664.75;;;5.67;67.53
30021;BME280;16861;52.294;7.760;2022-12-07T06:41:00;99670.22;;;5.61;67.64
30021;BME280;16861;52.294;7.760;2022-12-07T06:43:26;99675.66;;;5.55;67.78
30021;BME280;16861;52.294;7.760;2022-12-07T06:45:53;99664.53;;;5.50;67.90
30021;BME280;16861;52.294;7.760;2022-12-07T06:48:20;99675.13;;;5.45;68.03
30021;BME280;16861;52.294;7.760;2022-12-07T06:50:47;99677.06;;;5.40;67.74
30021;BME280;16861;52.294;7.760;2022-12-07T06:53:20;99674.56;;;5.37;67.96
30021;BME280;16861;52.294;7.760;2022-12-07T06:55:46;99673.84;;;5.33;67.95
30021;BME280;16861;52.294;7.760;2022-12-07T06:58:13;99672.19;;;5.30;68.21
30021;BME280;16861;52.294;7.760;2022-12-07T07:00:39;99678.41;;;5.26;68.24
30021;BME280;16861;52.294;7.760;2022-12-07T07:03:07;99675.91;;;5.23;68.24
30021;BME280;16861;52.294;7.760;2022-12-07T07:05:34;99689.88;;;5.22;68.20
30021;BME280;16861;52.294;7.760;2022-12-07T07:08:00;99681.28;;;5.20;68.59
30021;BME280;16861;52.294;7.760;2022-12-07T07:10:47;99683.88;;;5.20;68.73
30021;BME280;16861;52.294;7.760;2022-12-07T07:13:13;99675.19;;;5.19;68.93
30021;BME280;16861;52.294;7.760;2022-12-07T07:15:40;99675.19;;;5.19;69.02
30021;BME280;16861;52.294;7.760;2022-12-07T07:18:06;99676.81;;;5.22;69.10
30021;BME280;16861;52.294;7.760;2022-12-07T07:20:33;99681.13;;;5.23;69.16
30021;BME280;16861;52.294;7.760;2022-12-07T07:23:00;99678.47;;;5.25;69.12
30021;BME280;16861;52.294;7.760;2022-12-07T07:25:27;99681.09;;;5.25;68.88
30021;BME280;16861;52.294;7.760;2022-12-07T07:27:53;99690.59;;;5.26;68.60
30021;BME280;16861;52.294;7.760;2022-12-07T07:30:21;99688.09;;;5.24;68.55
30021;BME280;16861;52.294;7.760;2022-12-07T07:32:47;99688.13;;;5.22;68.48
30021;BME280;16861;52.294;7.760;2022-12-07T07:35:14;99692.53;;;5.20;68.46
30021;BME280;16861;52.294;7.760;2022-12-07T07:37:40;99693.50;;;5.18;68.43
30021;BME280;16861;52.294;7.760;2022-12-07T07:40:08;99687.50;;;5.16;68.66
30021;BME280;16861;52.294;7.760;2022-12-07T07:42:35;99694.50;;;5.14;68.31
30021;BME280;16861;52.294;7.760;2022-12-07T07:45:02;99693.72;;;5.12;68.35
30021;BME280;16861;52.294;7.760;2022-12-07T07:47:28;99696.41;;;5.10;68.54
30021;BME280;16861;52.294;7.760;2022-12-07T07:49:55;99692.13;;;5.07;68.40
30021;BME280;16861;52.294;7.760;2022-12-07T07:52:21;99701.72;;;5.07;68.54
30021;BME280;16861;52.294;7.760;2022-12-07T07:54:48;99692.25;;;5.04;68.53
30021;BME280;16861;52.294;7.760;2022-12-07T07:57:16;99697.56;;;5.01;68.48
30021;BME280;16861;52.294;7.760;2022-12-07T07:59:43;99694.13;;;5.01;68.64
30021;BME280;16861;52.294;7.760;2022-12-07T08:02:14;99695.97;;;4.97;68.78
30021;BME280;16861;52.294;7.760;2022-12-07T08:04:41;99695.13;;;4.97;68.64
30021;BME280;16861;52.294;7.760;2022-12-07T08:07:07;99693.44;;;4.95;68.48
30021;BME280;16861;52.294;7.760;2022-12-07T08:09:34;99693.47;;;4.94;68.74
30021;BME280;16861;52.294;7.760;2022-12-07T08:12:00;99692.63;;;4.93;68.72
30021;BME280;16861;52.294;7.760;2022-12-07T08:14:27;99689.13;;;4.93;69.06
30021;BME280;16861;52.294;7.760;2022-12-07T08:16:55;99695.28;;;4.92;68.97
30021;BME280;16861;52.294;7.760;2022-12-07T08:19:21;99696.13;;;4.92;69.09
30021;BME280;16861;52.294;7.760;2022-12-07T08:21:48;99698.75;;;4.92;69.31
30021;BME280;16861;52.294;7.760;2022-12-07T08:24:15;99699.47;;;4.96;69.53
30021;BME280;16861;52.294;7.760;2022-12-07T08:26:42;99702.94;;;4.97;69.55
30021;BME280;16861;52.294;7.760;2022-12-07T08:29:08;99700.22;;;5.00;69.53
30021;BME280;16861;52.294;7.760;2022-12-07T08:31:36;99696.66;;;5.02;69.59
30021;BME280;16861;52.294;7.760;2022-12-07T08:34:02;99695.72;;;5.05;69.20
30021;BME280;16861;52.294;7.760;2022-12-07T08:36:29;99696.50;;;5.07;69.16
30021;BME280;16861;52.294;7.760;2022-12-07T08:38:55;99698.28;;;5.06;69.15
30021;BME280;16861;52.294;7.760;2022-12-07T08:41:42;99706.94;;;5.07;69.43
30021;BME280;16861;52.294;7.760;2022-12-07T08:44:08;99698.19;;;5.08;69.42
30021;BME280;16861;52.294;7.760;2022-12-07T08:49:31;99706.88;;;5.08;70.22
30021;BME280;16861;52.294;7.760;2022-12-07T08:52:02;99704.03;;;5.15;69.70
30021;BME280;16861;52.294;7.760;2022-12-07T08:54:30;99698.72;;;5.18;69.79
30021;BME280;16861;52.294;7.760;2022-12-07T08:56:57;99709.97;;;5.20;69.93
30021;BME280;16861;52.294;7.760;2022-12-07T08:59:26;99704.56;;;5.25;70.06
30021;BME280;16861;52.294;7.760;2022-12-07T09:01:53;99700.03;;;5.30;70.03
30021;BME280;16861;52.294;7.760;2022-12-07T09:04:20;99708.63;;;5.33;70.31
30021;BME280;16861;52.294;7.760;2022-12-07T09:06:47;99704.09;;;5.39;70.28
30021;BME280;16861;52.294;7.760;2022-12-07T09:09:15;99710.84;;;5.44;70.31
30021;BME280;16861;52.294;7.760;2022-12-07T09:11:41;99711.47;;;5.51;70.45
30021;BME280;16861;52.294;7.760;2022-12-07T09:14:08;99706.06;;;5.56;70.39
30021;BME280;16861;52.294;7.760;2022-12-07T09:16:35;99702.38;;;5.61;70.11
30021;BME280;16861;52.294;7.760;2022-12-07T09:19:02;99708.28;;;5.67;70.24
30021;BME280;16861;52.294;7.760;2022-12-07T09:21:28;99704.63;;;5.71;70.07
30021;BME280;16861;52.294;7.760;2022-12-07T09:23:55;99702.72;;;5.76;70.25
30021;BME280;16861;52.294;7.760;2022-12-07T09:26:22;99709.47;;;5.82;69.90
30021;BME280;16861;52.294;7.760;2022-12-07T09:28:48;99717.13;;;5.86;70.06
30021;BME280;16861;52.294;7.760;2022-12-07T09:31:15;99717.84;;;5.90;70.03
30021;BME280;16861;52.294;7.760;2022-12-07T09:33:59;99718.59;;;5.94;69.95
30021;BME280;16861;52.294;7.760;2022-12-07T09:36:27;99709.66;;;5.99;69.89
30021;BME280;16861;52.294;7.760;2022-12-07T09:38:54;99706.06;;;6.02;69.73
30021;BME280;16861;52.294;7.760;2022-12-07T09:41:22;99706.00;;;6.05;69.71
30021;BME280;16861;52.294;7.760;2022-12-07T09:43:50;99704.91;;;6.11;69.87
30021;BME280;16861;52.294;7.760;2022-12-07T09:46:19;99705.63;;;6.15;69.64
30021;BME280;16861;52.294;7.760;2022-12-07T09:48:47;99703.56;;;6.23;70.13
30021;BME280;16861;52.294;7.760;2022-12-07T09:51:18;99714.69;;;6.28;70.27
30021;BME280;16861;52.294;7.760;2022-12-07T09:53:52;99707.44;;;6.35;69.72
30021;BME280;16861;52.294;7.760;2022-12-07T09:56:20;99705.47;;;6.42;69.67
30021;BME280;16861;52.294;7.760;2022-12-07T09:58:48;99702.59;;;6.48;69.75
30021;BME280;16861;52.294;7.760;2022-12-07T10:01:20;99695.44;;;6.51;69.84
30021;BME280;16861;52.294;7.760;2022-12-07T10:03:53;99698.66;;;6.58;69.62
30021;BME280;16861;52.294;7.760;2022-12-07T10:06:20;99696.59;;;6.67;69.95
30021;BME280;16861;52.294;7.760;2022-12-07T10:08:47;99696.34;;;6.73;69.42
30021;BME280;16861;52.294;7.760;2022-12-07T10:11:14;99695.22;;;6.78;69.25
30021;BME280;16861;52.294;7.760;2022-12-07T10:13:51;99693.38;;;6.81;68.98
30021;BME280;16861;52.294;7.760;2022-12-07T10:16:46;99693.22;;;6.85;68.91
30021;BME280;16861;52.294;7.760;2022-12-07T10:19:27;99689.47;;;6.91;68.84
30021;BME280;16861;52.294;7.760;2022-12-07T10:22:10;99690.19;;;6.95;68.78
30021;BME280;16861;52.294;7.760;2022-12-07T10:24:38;99681.19;;;7.00;68.70
30021;BME280;16861;52.294;7.760;2022-12-07T10:27:22;99695.16;;;7.01;68.42
30021;BME280;16861;52.294;7.760;2022-12-07T10:29:52;99691.38;;;7.08;68.73
30021;BME280;16861;52.294;7.760;2022-12-07T10:34:46;99683.09;;;7.17;68.73
30021;BME280;16861;52.294;7.760;2022-12-07T10:37:19;99675.94;;;7.21;68.63
30021;BME280;16861;52.294;7.760;2022-12-07T10:42:20;99678.25;;;7.29;67.96
30021;BME280;16861;52.294;7.760;2022-12-07T10:44:50;99679.78;;;7.33;68.35
30021;BME280;16861;52.294;7.760;2022-12-07T10:53:13;99673.66;;;7.34;67.10
30021;BME280;16861;52.294;7.760;2022-12-07T10:58:40;99676.41;;;7.31;67.42
30021;BME280;16861;52.294;7.760;2022-12-07T11:15:50;99652.47;;;7.58;68.06
30021;BME280;16861;52.294;7.760;2022-12-07T11:18:24;99656.28;;;7.70;68.47
30021;BME280;16861;52.294;7.760;2022-12-07T11:24:29;99645.97;;;7.86;67.31
30021;BME280;16861;52.294;7.760;2022-12-07T11:30:23;99654.16;;;7.98;66.13
30021;BME280;16861;52.294;7.760;2022-12-07T11:33:04;99632.19;;;8.00;66.41
30021;BME280;16861;52.294;7.760;2022-12-07T11:38:15;99627.88;;;7.99;66.80
30021;BME280;16861;52.294;7.760;2022-12-07T11:40:50;99626.13;;;8.17;70.17
30021;BME280;16861;52.294;7.760;2022-12-07T11:43:27;99615.03;;;8.47;71.27
30021;BME280;16861;52.294;7.760;2022-12-07T11:45:59;99627.66;;;8.92;71.12
30021;BME280;16861;52.294;7.760;2022-12-07T11:48:33;99629.63;;;9.38;70.05
30021;BME280;16861;52.294;7.760;2022-12-07T11:51:01;99621.41;;;9.77;68.79
30021;BME280;16861;52.294;7.760;2022-12-07T12:03:56;99611.03;;;9.90;62.05
30021;BME280;16861;52.294;7.760;2022-12-07T12:06:24;99612.41;;;9.81;62.97
30021;BME280;16861;52.294;7.760;2022-12-07T12:09:00;99606.25;;;9.66;62.54
30021;BME280;16861;52.294;7.760;2022-12-07T12:20:26;99592.34;;;9.48;63.30
30021;BME280;16861;52.294;7.760;2022-12-07T12:23:00;99590.41;;;9.51;63.29
30021;BME280;16861;52.294;7.760;2022-12-07T12:25:29;99598.28;;;9.51;63.48
30021;BME280;16861;52.294;7.760;2022-12-07T12:27:58;99591.50;;;9.47;63.32
30021;BME280;16861;52.294;7.760;2022-12-07T12:33:02;99581.81;;;9.32;62.06
30021;BME280;16861;52.294;7.760;2022-12-07T12:38:32;99582.25;;;9.08;61.93
30021;BME280;16861;52.294;7.760;2022-12-07T12:41:00;99571.28;;;8.99;62.66
30021;BME280;16861;52.294;7.760;2022-12-07T12:43:44;99562.47;;;8.84;62.40
30021;BME280;16861;52.294;7.760;2022-12-07T12:52:00;99566.72;;;8.69;63.42
30021;BME280;16861;52.294;7.760;2022-12-07T12:54:35;99564.88;;;8.71;63.56
30021;BME280;16861;52.294;7.760;2022-12-07T12:57:11;99570.81;;;8.75;63.46
30021;BME280;16861;52.294;7.760;2022-12-07T12:59:57;99573.19;;;8.80;63.55
30021;BME280;16861;52.294;7.760;2022-12-07T13:02:36;99573.78;;;8.85;63.41
30021;BME280;16861;52.294;7.760;2022-12-07T13:12:56;99564.59;;;8.94;63.04
30021;BME280;16861;52.294;7.760;2022-12-07T13:15:38;99569.84;;;8.94;62.50
30021;BME280;16861;52.294;7.760;2022-12-07T13:20:51;99563.56;;;8.96;62.06
30021;BME280;16861;52.294;7.760;2022-12-07T13:23:20;99557.38;;;8.97;62.91
30021;BME280;16861;52.294;7.760;2022-12-07T13:26:00;99556.78;;;8.92;62.23
30021;BME280;16861;52.294;7.760;2022-12-07T13:28:38;99560.44;;;8.90;62.08
30021;BME280;16861;52.294;7.760;2022-12-07T13:31:14;99554.59;;;8.84;61.83
30021;BME280;16861;52.294;7.760;2022-12-07T13:33:45;99547.72;;;8.82;62.39
30021;BME280;16861;52.294;7.760;2022-12-07T13:36:23;99544.72;;;8.72;62.30
30021;BME280;16861;52.294;7.760;2022-12-07T13:38:56;99540.41;;;8.71;62.58
30021;BME280;16861;52.294;7.760;2022-12-07T13:41:28;99528.38;;;8.67;62.62
30021;BME280;16861;52.294;7.760;2022-12-07T13:44:07;99533.78;;;8.64;62.50
30021;BME280;16861;52.294;7.760;2022-12-07T13:46:46;99526.16;;;8.59;61.25
30021;BME280;16861;52.294;7.760;2022-12-07T13:49:24;99529.72;;;8.58;61.77
30021;BME280;16861;52.294;7.760;2022-12-07T13:51:51;99525.41;;;8.57;62.52
30021;BME280;16861;52.294;7.760;2022-12-07T13:54:19;99518.59;;;8.53;62.78
30021;BME280;16861;52.294;7.760;2022-12-07T13:56:52;99519.66;;;8.48;62.19
30021;BME280;16861;52.294;7.760;2022-12-07T13:59:21;99511.00;;;8.46;62.52
30021;BME280;16861;52.294;7.760;2022-12-07T14:01:50;99516.25;;;8.46;62.93
30021;BME280;16861;52.294;7.760;2022-12-07T14:04:36;99523.53;;;8.41;62.16
30021;BME280;16861;52.294;7.760;2022-12-07T14:07:21;99517.53;;;8.39;62.35
30021;BME280;16861;52.294;7.760;2022-12-07T14:09:55;99512.28;;;8.39;62.60
30021;BME280;16861;52.294;7.760;2022-12-07T14:12:23;99521.75;;;8.42;63.21
30021;BME280;16861;52.294;7.760;2022-12-07T14:14:50;99508.88;;;8.37;62.89
30021;BME280;16861;52.294;7.760;2022-12-07T14:17:19;99516.00;;;8.35;63.02
30021;BME280;16861;52.294;7.760;2022-12-07T14:19:54;99512.69;;;8.31;63.07
30021;BME280;16861;52.294;7.760;2022-12-07T14:25:19;99509.50;;;8.25;62.72
30021;BME280;16861;52.294;7.760;2022-12-07T14:27:49;99503.44;;;8.24;62.82
30021;BME280;16861;52.294;7.760;2022-12-07T14:30:18;99502.75;;;8.20;62.99
30021;BME280;16861;52.294;7.760;2022-12-07T14:32:45;99503.84;;;8.16;62.92
30021;BME280;16861;52.294;7.760;2022-12-07T14:35:16;99512.84;;;8.11;62.60
30021;BME280;16861;52.294;7.760;2022-12-07T14:37:45;99505.22;;;8.06;62.76
30021;BME280;16861;52.294;7.760;2022-12-07T14:40:33;99510.84;;;7.98;62.32
30021;BME280;16861;52.294;7.760;2022-12-07T14:43:15;99515.22;;;7.98;62.55
30021;BME280;16861;52.294;7.760;2022-12-07T14:45:41;99520.66;;;7.94;62.91
30021;BME280;16861;52.294;7.760;2022-12-07T14:48:12;99510.53;;;7.87;62.30
30021;BME280;16861;52.294;7.760;2022-12-07T14:50:59;99515.06;;;7.83;62.82
30021;BME280;16861;52.294;7.760;2022-12-07T14:53:48;99514.59;;;7.75;62.65
30021;BME280;16861;52.294;7.760;2022-12-07T14:56:23;99510.44;;;7.71;62.83
30021;BME280;16861;52.294;7.760;2022-12-07T14:58:49;99512.44;;;7.65;62.76
30021;BME280;16861;52.294;7.760;2022-12-07T15:01:16;99506.66;;;7.59;62.77
30021;BME280;16861;52.294;7.760;2022-12-07T15:03:42;99497.19;;;7.56;62.80
30021;BME280;16861;52.294;7.760;2022-12-07T15:06:13;99497.47;;;7.50;62.94
30021;BME280;16861;52.294;7.760;2022-12-07T15:08:40;99500.16;;;7.48;63.07
30021;BME280;16861;52.294;7.760;2022-12-07T15:11:11;99495.16;;;7.43;63.41
30021;BME280;16861;52.294;7.760;2022-12-07T15:13:38;99493.53;;;7.41;63.17
30021;BME280;16861;52.294;7.760;2022-12-07T15:16:23;99498.91;;;7.38;63.45
30021;BME280;16861;52.294;7.760;2022-12-07T15:18:49;99489.44;;;7.35;63.45
30021;BME280;16861;52.294;7.760;2022-12-07T15:21:35;99492.19;;;7.32;63.59
30021;BME280;16861;52.294;7.760;2022-12-07T15:24:02;99493.25;;;7.28;63.45
30021;BME280;16861;52.294;7.760;2022-12-07T15:26:28;99491.63;;;7.25;63.26